Time;durP1;ratioP1;P1;durP2;ratioP2;P2;SDS_P1;SDS_P2;PMS_P1;PMS_P2;Temp;Humidity;BMP_temperature;BMP_pressure;BME280_temperature;BME280_humidity;BME280_pressure;Samples;Min_cycle;Max_cycle;Signal;HPM_P1;HPM_P2
2022/05/06 00:02:09;;;;;;;8.60;7.70;;;;;;;17.42;56.34;99416.63;231050;1232;139937;-59
2022/05/06 00:07:13;;;;;;;9.60;7.80;;;;;;;17.40;56.44;99417.50;231002;1232;141400;-59
2022/05/06 00:12:18;;;;;;;8.90;7.80;;;;;;;17.39;56.47;99418.14;230951;1232;139126;-58
2022/05/06 00:17:21;;;;;;;8.90;7.40;;;;;;;17.35;56.41;99417.75;230790;1232;139344;-61
2022/05/06 00:22:24;;;;;;;10.10;7.80;;;;;;;17.31;56.61;99415.41;230930;1232;138776;-60
2022/05/06 00:27:27;;;;;;;12.70;8.90;;;;;;;17.25;56.67;99415.36;230999;1232;139021;-62
2022/05/06 00:32:33;;;;;;;11.40;9.90;;;;;;;17.32;56.74;99422.19;230638;1232;139134;-60
2022/05/06 00:37:36;;;;;;;10.10;8.80;;;;;;;17.24;56.55;99421.88;230419;1231;140127;-61
2022/05/06 00:42:39;;;;;;;10.80;9.00;;;;;;;17.14;56.56;99422.77;230538;1232;139660;-59
2022/05/06 00:47:43;;;;;;;10.90;9.00;;;;;;;17.09;56.79;99434.84;230941;1233;140885;-59
2022/05/06 00:52:46;;;;;;;13.80;9.90;;;;;;;17.11;56.98;99452.59;230564;1232;139722;-60
2022/05/06 00:57:49;;;;;;;12.90;10.10;;;;;;;17.08;57.16;99462.49;230662;1231;139003;-58
2022/05/06 01:02:52;;;;;;;13.70;10.30;;;;;;;17.06;57.33;99463.89;231009;1232;138829;-60
2022/05/06 01:07:58;;;;;;;9.90;8.80;;;;;;;17.09;57.50;99465.65;230508;1231;140179;-60
2022/05/06 01:13:01;;;;;;;10.90;9.40;;;;;;;17.16;57.71;99470.04;230966;1232;139856;-59
2022/05/06 01:18:05;;;;;;;11.90;10.00;;;;;;;17.13;57.53;99465.90;230711;1233;140068;-54
2022/05/06 01:23:08;;;;;;;11.80;8.90;;;;;;;17.10;57.68;99476.36;230848;1232;140430;-58
2022/05/06 01:28:13;;;;;;;10.70;8.90;;;;;;;17.12;57.75;99478.64;230421;1232;139747;-59
2022/05/06 01:33:19;;;;;;;13.70;11.80;;;;;;;17.11;57.49;99475.71;230532;1232;139703;-62
2022/05/06 01:38:29;;;;;;;13.20;11.20;;;;;;;17.09;57.58;99474.42;230943;1232;139840;-60
2022/05/06 01:43:42;;;;;;;15.00;12.10;;;;;;;17.03;57.44;99477.84;230559;1233;139031;-59
2022/05/06 01:48:48;;;;;;;15.60;13.10;;;;;;;16.94;57.60;99475.64;230862;1232;138854;-61
2022/05/06 01:53:53;;;;;;;14.40;12.60;;;;;;;16.90;57.59;99483.90;230769;1232;139596;-61
2022/05/06 01:58:56;;;;;;;15.20;13.60;;;;;;;16.79;57.57;99486.73;231043;1232;139020;-61
2022/05/06 02:09:22;;;;;;;14.20;12.70;;;;;;;16.72;57.77;99501.98;231023;1233;139434;-61
2022/05/06 02:14:37;;;;;;;18.20;13.60;;;;;;;16.71;57.77;99493.08;230711;1233;139439;-62
2022/05/06 02:19:59;;;;;;;14.50;11.80;;;;;;;16.70;57.73;99494.23;230787;1233;140740;-59
2022/05/06 02:25:11;;;;;;;18.80;13.10;;;;;;;16.66;57.73;99493.82;230924;1232;139364;-60
2022/05/06 02:35:48;;;;;;;16.80;12.30;;;;;;;16.50;57.72;99496.95;230819;1233;139918;-59
2022/05/06 02:40:59;;;;;;;14.60;12.10;;;;;;;16.46;57.76;99499.73;230886;1232;139349;-59
2022/05/06 02:46:08;;;;;;;17.10;12.80;;;;;;;16.38;57.93;99496.31;230781;1232;140179;-58
2022/05/06 02:51:13;;;;;;;19.30;13.20;;;;;;;16.40;58.19;99506.44;230328;1232;140200;-59
2022/05/06 02:56:17;;;;;;;19.70;12.60;;;;;;;16.48;58.20;99505.34;230729;1233;140457;-60
2022/05/06 03:01:25;;;;;;;18.70;13.90;;;;;;;16.50;58.49;99503.02;230673;1232;139527;-59
2022/05/06 03:06:29;;;;;;;18.30;13.20;;;;;;;16.54;58.56;99496.98;230653;1232;139215;-58
2022/05/06 03:11:33;;;;;;;16.80;13.30;;;;;;;16.58;58.57;99499.69;231172;1232;139983;-59
2022/05/06 03:16:45;;;;;;;17.80;13.60;;;;;;;16.56;58.59;99518.45;230473;1232;139601;-58
2022/05/06 03:21:54;;;;;;;18.90;13.70;;;;;;;16.54;58.71;99526.53;230934;1232;139176;-58
2022/05/06 03:26:57;;;;;;;23.00;17.10;;;;;;;16.50;58.85;99540.60;230573;1233;138969;-59
2022/05/06 03:32:00;;;;;;;19.90;15.20;;;;;;;16.53;59.14;99547.14;230889;1232;139789;-60
2022/05/06 03:37:05;;;;;;;16.90;13.20;;;;;;;16.63;59.21;99566.30;230921;1233;139621;-59
2022/05/06 03:42:09;;;;;;;71.30;56.30;;;;;;;16.65;59.21;99562.55;230718;1232;139855;-58
2022/05/06 03:47:13;;;;;;;28.90;25.60;;;;;;;16.68;59.37;99556.05;230738;1232;139286;-57
2022/05/06 03:52:16;;;;;;;11.00;9.80;;;;;;;16.76;59.46;99557.90;230734;1233;139093;-58
2022/05/06 03:57:19;;;;;;;12.20;8.60;;;;;;;16.75;59.05;99570.92;230952;1232;138942;-58
2022/05/06 04:02:24;;;;;;;119.10;88.40;;;;;;;16.65;58.92;99561.64;230857;1232;142007;-59
2022/05/06 04:07:28;;;;;;;11.30;10.00;;;;;;;16.64;59.25;99553.31;230682;1233;139601;-58
2022/05/06 04:12:33;;;;;;;11.10;8.80;;;;;;;16.75;59.22;99547.42;230590;1233;140544;-56
2022/05/06 04:17:39;;;;;;;9.80;8.70;;;;;;;16.78;59.04;99545.08;230775;1233;140497;-54
2022/05/06 04:28:05;;;;;;;11.20;8.90;;;;;;;16.86;59.29;99547.84;230782;1233;140192;-55
2022/05/06 04:33:08;;;;;;;11.50;9.10;;;;;;;16.87;59.04;99535.77;231108;1233;139573;-57
2022/05/06 04:38:13;;;;;;;41.40;33.50;;;;;;;16.85;59.25;99536.45;230828;1233;139165;-57
2022/05/06 04:43:18;;;;;;;11.60;9.50;;;;;;;16.95;59.58;99539.94;231008;1232;140640;-57
2022/05/06 04:48:25;;;;;;;10.20;8.80;;;;;;;17.01;59.31;99535.67;230685;1233;140382;-57
2022/05/06 04:53:28;;;;;;;12.60;9.50;;;;;;;17.10;59.25;99539.42;230823;1232;139806;-57
2022/05/06 04:58:32;;;;;;;11.00;9.30;;;;;;;17.17;59.41;99541.04;230832;1231;139205;-58
2022/05/06 05:03:38;;;;;;;12.00;9.60;;;;;;;17.22;59.33;99539.91;230840;1232;139376;-57
2022/05/06 05:08:43;;;;;;;12.30;9.50;;;;;;;17.29;59.35;99542.02;231055;1233;139487;-58
2022/05/06 05:13:49;;;;;;;13.90;9.90;;;;;;;17.34;59.40;99550.05;230729;1233;139149;-56
2022/05/06 05:18:59;;;;;;;11.00;9.20;;;;;;;17.32;59.21;99554.67;230810;1232;138973;-59
2022/05/06 05:24:03;;;;;;;11.50;9.10;;;;;;;17.28;59.26;99555.71;230580;1233;138867;-58
2022/05/06 05:29:07;;;;;;;11.70;9.60;;;;;;;17.29;59.20;99561.21;230703;1232;139842;-56
2022/05/06 05:34:11;;;;;;;11.10;9.60;;;;;;;17.31;59.11;99555.67;230638;1233;142080;-60
2022/05/06 05:39:14;;;;;;;14.00;10.00;;;;;;;17.33;59.21;99544.77;230976;1232;139243;-62
2022/05/06 05:49:40;;;;;;;14.70;11.10;;;;;;;17.41;59.42;99544.27;230857;1233;139255;-59
2022/05/06 05:54:43;;;;;;;16.80;11.40;;;;;;;17.45;59.21;99549.63;230710;1233;139024;-60
2022/05/06 05:59:47;;;;;;;15.80;11.00;;;;;;;17.51;59.20;99548.98;231010;1233;139945;-61
2022/05/06 06:04:51;;;;;;;15.30;10.80;;;;;;;17.53;59.02;99555.33;230816;1232;139610;-58
2022/05/06 06:09:54;;;;;;;15.10;11.50;;;;;;;17.58;59.20;99550.09;231005;1232;139888;-58
2022/05/06 06:14:59;;;;;;;18.80;12.10;;;;;;;17.70;59.16;99550.10;230727;1233;139371;-59
2022/05/06 06:20:05;;;;;;;18.00;12.30;;;;;;;17.75;59.09;99551.85;230790;1233;139929;-60
2022/05/06 06:25:14;;;;;;;18.40;13.20;;;;;;;17.79;59.04;99558.89;230678;1232;139392;-63
2022/05/06 06:30:17;;;;;;;16.20;13.00;;;;;;;17.83;58.74;99567.55;231069;1232;139171;-58
2022/05/06 06:35:29;;;;;;;16.70;12.10;;;;;;;17.81;58.69;99572.19;230754;1233;139773;-59
2022/05/06 06:40:35;;;;;;;17.10;13.20;;;;;;;17.76;58.81;99584.59;230733;1233;139823;-58
2022/05/06 06:45:38;;;;;;;24.40;13.50;;;;;;;17.74;58.74;99590.15;230694;1233;138746;-56
2022/05/06 06:50:52;;;;;;;16.20;13.30;;;;;;;17.75;58.87;99593.98;230801;1233;139861;-56
2022/05/06 06:56:00;;;;;;;21.90;14.00;;;;;;;17.78;58.89;99589.48;230836;1233;140377;-58
2022/05/06 07:01:03;;;;;;;26.10;15.80;;;;;;;17.93;58.93;99594.71;230838;1233;139666;-61
2022/05/06 07:16:51;;;;;;;25.80;15.70;;;;;;;18.30;58.65;99594.52;230831;1232;139236;-61
2022/05/06 07:21:54;;;;;;;20.40;16.10;;;;;;;18.39;58.85;99595.50;230107;1232;139206;-59
2022/05/06 07:26:57;;;;;;;19.40;16.10;;;;;;;18.44;58.57;99595.42;230923;1232;139064;-57
2022/05/06 07:32:01;;;;;;;23.80;17.00;;;;;;;18.54;58.62;99595.96;231132;1232;139390;-60
2022/05/06 07:37:04;;;;;;;20.30;16.20;;;;;;;18.64;58.59;99602.25;230747;1232;139317;-59
2022/05/06 07:42:08;;;;;;;19.20;16.60;;;;;;;18.76;58.41;99599.73;230811;1232;139444;-57
2022/05/06 07:47:12;;;;;;;21.10;15.00;;;;;;;18.83;58.20;99611.16;231068;1231;139514;-58
2022/05/06 07:52:18;;;;;;;24.10;15.50;;;;;;;18.92;58.05;99605.46;231097;1233;140441;-59
2022/05/06 07:57:21;;;;;;;19.50;14.80;;;;;;;19.13;58.06;99604.56;230843;1232;141685;-57
2022/05/06 08:07:45;;;;;;;25.70;16.80;;;;;;;19.40;57.86;99610.08;230531;1232;138771;-61
2022/05/06 08:12:48;;;;;;;21.20;16.40;;;;;;;19.51;57.75;99609.22;230642;1232;139739;-60
2022/05/06 08:17:51;;;;;;;22.30;15.80;;;;;;;19.58;57.46;99614.15;230598;1232;138937;-60
2022/05/06 08:22:55;;;;;;;21.00;16.10;;;;;;;19.54;56.96;99618.63;230713;1233;139770;-62
2022/05/06 08:27:58;;;;;;;21.10;16.90;;;;;;;19.48;56.65;99615.77;230628;1233;139752;-60
2022/05/06 08:33:02;;;;;;;24.40;16.60;;;;;;;19.43;56.59;99620.59;230115;1233;139000;-62
2022/05/06 08:38:16;;;;;;;24.20;17.00;;;;;;;19.27;56.37;99622.36;230547;1232;138862;-59
2022/05/06 08:43:22;;;;;;;21.10;17.70;;;;;;;19.15;56.36;99628.77;230548;1232;140005;-59
2022/05/06 08:54:11;;;;;;;23.80;17.90;;;;;;;19.00;56.54;99631.73;230601;1232;139636;-58
2022/05/06 08:59:28;;;;;;;81.30;60.80;;;;;;;18.99;56.66;99643.34;230438;1232;141895;-59
2022/05/06 09:04:39;;;;;;;35.70;24.40;;;;;;;19.02;56.72;99649.77;230685;1232;139110;-58
2022/05/06 09:09:45;;;;;;;26.60;17.90;;;;;;;19.03;56.84;99640.14;230816;1232;140772;-61
2022/05/06 09:20:28;;;;;;;20.60;16.80;;;;;;;19.03;56.51;99645.31;230720;1232;141168;-59
2022/05/06 09:25:42;;;;;;;23.00;15.50;;;;;;;18.98;56.41;99649.17;230874;1232;140850;-61
2022/05/06 09:31:06;;;;;;;23.10;15.90;;;;;;;18.89;56.38;99651.96;230881;1232;139791;-60
2022/05/06 09:36:26;;;;;;;21.50;17.00;;;;;;;18.88;56.68;99658.67;230846;1232;139840;-57
2022/05/06 09:41:41;;;;;;;18.20;13.80;;;;;;;18.96;56.51;99656.36;230445;1233;140513;-59
2022/05/06 09:46:45;;;;;;;17.30;13.30;;;;;;;19.05;56.52;99655.78;230774;1231;139894;-60
2022/05/06 09:51:54;;;;;;;16.50;13.40;;;;;;;19.16;56.50;99654.30;230935;1232;140039;-61
2022/05/06 09:57:01;;;;;;;;;;;;;;;19.27;56.46;99656.55;230956;1232;140261;-60
2022/05/06 10:02:08;;;;;;;18.40;14.60;;;;;;;19.37;56.63;99649.55;230906;1231;126251;-59
2022/05/06 10:07:17;;;;;;;21.20;14.40;;;;;;;19.47;56.43;99659.26;230803;1232;139328;-60
2022/05/06 10:12:23;;;;;;;19.70;14.60;;;;;;;19.56;56.48;99659.50;230621;1232;139068;-59
2022/05/06 10:17:50;;;;;;;20.40;14.50;;;;;;;19.66;56.30;99663.20;230626;1231;139547;-60
2022/05/06 10:23:02;;;;;;;19.30;14.80;;;;;;;19.73;56.18;99663.48;230745;1232;139336;-61
2022/05/06 10:34:07;;;;;;;19.90;15.20;;;;;;;19.76;56.22;99664.22;231025;1232;139295;-60
2022/05/06 10:39:34;;;;;;;22.90;13.90;;;;;;;19.76;56.15;99663.70;230833;1232;230602;-60
2022/05/06 10:44:42;;;;;;;21.00;14.30;;;;;;;19.69;55.96;99659.46;230921;1233;139584;-60
2022/05/06 10:49:51;;;;;;;18.50;14.10;;;;;;;19.63;55.73;99665.77;230901;1232;141141;-55
2022/05/06 10:55:04;;;;;;;17.60;13.70;;;;;;;19.54;55.83;99658.28;230969;1232;140544;-59
2022/05/06 11:00:17;;;;;;;18.80;13.40;;;;;;;19.52;55.92;99662.02;231007;1232;139174;-59
2022/05/06 11:05:24;;;;;;;16.60;13.50;;;;;;;19.52;56.39;99654.52;230802;1233;140154;-59
2022/05/06 11:10:31;;;;;;;33.20;25.30;;;;;;;19.65;56.40;99646.13;230694;1232;139766;-59
2022/05/06 11:16:12;;;;;;;15.40;11.40;;;;;;;19.83;56.92;99641.13;230500;1232;139962;-60
2022/05/06 11:21:31;;;;;;;13.90;9.30;;;;;;;20.05;56.21;99641.10;230866;1232;139224;-60
2022/05/06 11:26:40;;;;;;;18.00;11.50;;;;;;;20.34;55.60;99635.53;230690;1232;138975;-60
2022/05/06 11:31:49;;;;;;;13.70;10.40;;;;;;;20.56;55.48;99632.61;230874;1232;139658;-60
2022/05/06 11:36:53;;;;;;;18.00;11.40;;;;;;;20.72;55.37;99626.52;230760;1232;138871;-60
2022/05/06 11:42:23;;;;;;;17.50;12.20;;;;;;;20.90;55.05;99622.70;231478;1232;139126;-60
2022/05/06 11:47:31;;;;;;;14.50;10.10;;;;;;;21.03;54.69;99617.33;231208;1232;139054;-60
2022/05/06 11:52:44;;;;;;;13.80;8.20;;;;;;;21.06;54.16;99615.96;230866;1231;140506;-60
2022/05/06 11:57:52;;;;;;;16.30;8.80;;;;;;;21.12;53.62;99618.46;230697;1231;139391;-60
2022/05/06 12:03:03;;;;;;;11.20;7.50;;;;;;;21.13;53.05;99618.75;230583;1232;138885;-60
2022/05/06 12:08:24;;;;;;;10.20;6.40;;;;;;;21.09;52.62;99612.81;230749;1232;138534;-61
2022/05/06 12:13:40;;;;;;;14.00;8.20;;;;;;;21.03;52.18;99612.45;230839;1232;139121;-60
2022/05/06 12:18:54;;;;;;;10.70;8.10;;;;;;;20.99;52.22;99607.23;230017;1232;139113;-64
2022/05/06 12:24:02;;;;;;;12.50;9.60;;;;;;;20.94;52.10;99605.34;230947;1232;139021;-60
2022/05/06 12:29:20;;;;;;;;;;;;;;;20.88;51.87;99605.61;230593;1231;139865;-62
2022/05/06 12:34:35;;;;;;;10.60;8.40;;;;;;;20.81;51.82;99599.38;230632;1232;125268;-57
2022/05/06 12:39:51;;;;;;;11.30;9.60;;;;;;;20.83;51.81;99591.27;230443;1232;138718;-53
2022/05/06 12:45:12;;;;;;;17.60;9.90;;;;;;;20.99;51.96;99590.59;230788;1231;139498;-62
2022/05/06 12:50:22;;;;;;;13.80;9.80;;;;;;;21.06;51.71;99594.27;230254;1232;138962;-58
2022/05/06 12:55:32;;;;;;;16.20;11.30;;;;;;;21.04;51.66;99587.38;230815;1232;139099;-60
2022/05/06 13:00:44;;;;;;;14.20;10.30;;;;;;;21.05;51.46;99592.92;230611;1232;139655;-58
2022/05/06 13:05:57;;;;;;;13.10;10.00;;;;;;;20.98;51.42;99581.67;230661;1231;140181;-60
2022/05/06 13:11:15;;;;;;;14.60;9.20;;;;;;;20.94;51.35;99575.98;231167;1232;138666;-59
2022/05/06 13:16:21;;;;;;;11.50;9.40;;;;;;;20.92;51.39;99580.48;231099;1232;138656;-59
2022/05/06 13:21:32;;;;;;;12.50;9.50;;;;;;;20.92;51.36;99580.43;230711;1232;139106;-59
2022/05/06 13:26:45;;;;;;;15.20;12.00;;;;;;;20.87;51.31;99582.79;230753;1232;139614;-60
2022/05/06 13:31:52;;;;;;;11.10;9.80;;;;;;;20.83;51.31;99576.06;230838;1231;139749;-60
2022/05/06 13:37:01;;;;;;;12.40;9.70;;;;;;;20.80;51.28;99572.73;231109;1232;139154;-58
2022/05/06 13:42:15;;;;;;;15.50;11.20;;;;;;;20.83;51.39;99575.10;230991;1232;139970;-58
2022/05/06 13:47:30;;;;;;;15.20;11.50;;;;;;;20.80;51.43;99559.78;230764;1232;139802;-58
2022/05/06 13:52:38;;;;;;;14.40;11.20;;;;;;;20.80;51.48;99557.63;230303;1232;139535;-59
2022/05/06 14:03:16;;;;;;;17.20;12.90;;;;;;;20.88;51.46;99549.81;230306;1233;138999;-59
2022/05/06 14:08:21;;;;;;;20.20;14.80;;;;;;;20.91;51.56;99548.46;230510;1232;140836;-60
2022/05/06 14:13:27;;;;;;;21.10;15.50;;;;;;;21.00;51.57;99554.60;230602;1232;139037;-59
2022/05/06 14:18:35;;;;;;;24.70;16.50;;;;;;;21.05;51.47;99545.10;230563;1232;139038;-59
2022/05/06 14:23:45;;;;;;;20.10;15.40;;;;;;;21.07;51.52;99542.38;230449;1232;138628;-55
2022/05/06 14:29:04;;;;;;;22.00;16.10;;;;;;;21.04;51.48;99539.96;230300;1233;139733;-59
2022/05/06 14:34:10;;;;;;;19.50;14.80;;;;;;;21.01;51.49;99538.65;230920;1232;139437;-55
2022/05/06 14:39:19;;;;;;;19.30;14.80;;;;;;;20.93;51.54;99529.52;229997;1232;139126;-58
2022/05/06 14:44:31;;;;;;;19.10;14.70;;;;;;;20.92;51.67;99537.59;230385;1232;138976;-60
2022/05/06 14:49:41;;;;;;;19.40;14.00;;;;;;;20.94;51.60;99535.38;231040;1231;138957;-59
2022/05/06 14:54:53;;;;;;;17.40;14.40;;;;;;;20.90;51.57;99535.40;230915;1232;138901;-58
2022/05/06 15:00:11;;;;;;;17.20;13.60;;;;;;;20.84;51.50;99541.19;230973;1232;138960;-53
2022/05/06 15:05:21;;;;;;;20.80;14.20;;;;;;;20.79;51.61;99545.27;230751;1232;140702;-61
2022/05/06 15:10:28;;;;;;;23.50;14.20;;;;;;;20.77;51.75;99546.01;230778;1232;138775;-61
2022/05/06 15:15:39;;;;;;;20.10;14.70;;;;;;;20.84;51.97;99551.11;228015;1231;2347502;-60
2022/05/06 15:20:51;;;;;;;22.50;15.60;;;;;;;20.91;51.99;99544.10;230370;1233;139594;-62
2022/05/06 15:26:03;;;;;;;22.50;16.10;;;;;;;20.93;51.85;99540.84;230015;1232;388260;-62
2022/05/06 15:31:12;;;;;;;23.00;16.60;;;;;;;20.98;51.87;99548.33;222580;1233;5294357;-64
2022/05/06 15:36:29;;;;;;;21.90;17.00;;;;;;;20.96;51.86;99544.69;230733;1232;139066;-63
2022/05/06 15:41:40;;;;;;;22.00;16.70;;;;;;;20.96;51.90;99538.40;231493;1232;139328;-63
2022/05/06 15:46:50;;;;;;;21.80;17.20;;;;;;;20.94;51.59;99545.06;231180;1232;138702;-61
2022/05/06 15:51:56;;;;;;;24.60;18.90;;;;;;;20.87;51.81;99528.05;231109;1231;139007;-64
2022/05/06 16:04:12;;;;;;;20.40;16.40;;;;;;;20.80;51.89;99531.67;229679;1232;139049;-60
2022/05/06 16:09:17;;;;;;;23.00;17.30;;;;;;;20.71;52.10;99530.17;230887;1232;139210;-60
2022/05/06 16:19:50;;;;;;;24.80;21.00;;;;;;;20.67;52.37;99533.60;231126;1232;139091;-63
2022/05/06 16:25:21;;;;;;;25.00;18.60;;;;;;;20.67;52.23;99534.20;230938;1233;139696;-63
2022/05/06 16:30:30;;;;;;;27.70;19.50;;;;;;;20.62;52.15;99534.20;231058;1232;139918;-62
2022/05/06 16:41:09;;;;;;;36.80;28.10;;;;;;;20.57;52.42;99538.92;230908;1232;139965;-57
2022/05/06 16:46:22;;;;;;;25.10;20.60;;;;;;;20.59;52.55;99544.88;230772;1232;139730;-61
2022/05/06 16:51:26;;;;;;;27.60;20.10;;;;;;;20.60;52.52;99542.96;230718;1231;139389;-62
2022/05/06 16:56:31;;;;;;;107.30;84.40;;;;;;;20.56;52.48;99542.09;230630;1233;139112;-58
2022/05/06 17:01:42;;;;;;;158.60;110.50;;;;;;;20.54;53.06;99546.42;230649;1232;139730;-59
2022/05/06 17:06:53;;;;;;;36.00;26.40;;;;;;;20.72;53.37;99558.02;231032;1231;139075;-62
2022/05/06 17:11:57;;;;;;;49.10;29.80;;;;;;;20.72;53.12;99558.78;230733;1232;139321;-62
2022/05/06 17:17:11;;;;;;;21.50;14.00;;;;;;;20.56;52.43;99558.09;230798;1233;140198;-60
2022/05/06 17:22:17;;;;;;;9.90;7.70;;;;;;;20.28;51.75;99572.65;231041;1232;140186;-58
2022/05/06 17:27:24;;;;;;;11.50;8.10;;;;;;;20.06;51.57;99571.30;230845;1232;138963;-59
2022/05/06 17:32:30;;;;;;;16.10;10.10;;;;;;;19.88;51.72;99565.73;230567;1232;139606;-58
2022/05/06 17:37:40;;;;;;;10.60;9.60;;;;;;;19.74;51.78;99564.19;230989;1232;139040;-54
2022/05/06 17:42:48;;;;;;;11.00;9.00;;;;;;;19.61;52.02;99559.54;231070;1232;139839;-58
2022/05/06 17:47:55;;;;;;;;;;;;;;;19.52;51.91;99559.52;230649;1232;138631;-61
2022/05/06 17:53:13;;;;;;;8.10;7.00;;;;;;;19.36;51.90;99566.68;230931;1232;125094;-57
2022/05/06 17:58:18;;;;;;;10.10;8.30;;;;;;;19.22;51.82;99571.88;230886;1233;139091;-59
2022/05/06 18:03:22;;;;;;;8.60;7.50;;;;;;;19.13;52.06;99581.00;231062;1233;138988;-59
2022/05/06 18:08:30;;;;;;;13.30;7.70;;;;;;;19.06;52.13;99580.17;230811;1233;139131;-59
2022/05/06 18:13:37;;;;;;;10.20;8.20;;;;;;;19.00;52.29;99587.14;230719;1231;139047;-58
2022/05/06 18:18:44;;;;;;;11.90;8.10;;;;;;;18.94;52.44;99594.48;230500;1233;139399;-58
2022/05/06 18:23:49;;;;;;;11.30;8.10;;;;;;;18.90;52.58;99601.67;230860;1232;138823;-59
2022/05/06 18:28:52;;;;;;;8.80;7.90;;;;;;;18.87;52.83;99606.83;230587;1232;139124;-61
2022/05/06 18:33:57;;;;;;;15.10;10.00;;;;;;;18.83;52.78;99609.52;231152;1232;138610;-59
2022/05/06 18:39:01;;;;;;;15.20;10.50;;;;;;;18.88;52.95;99622.03;231180;1232;139475;-60
2022/05/06 18:44:10;;;;;;;15.20;9.90;;;;;;;18.91;53.22;99620.13;230784;1232;140298;-58
2022/05/06 18:49:17;;;;;;;11.40;9.70;;;;;;;18.94;53.17;99622.17;230676;1233;139525;-58
2022/05/06 18:54:22;;;;;;;18.10;12.50;;;;;;;18.98;53.35;99629.21;230512;1233;138566;-59
2022/05/06 18:59:32;;;;;;;18.80;13.00;;;;;;;19.01;53.33;99629.51;230653;1233;139420;-58
2022/05/06 19:04:38;;;;;;;15.70;12.40;;;;;;;19.06;53.11;99630.14;231249;1232;139809;-59
2022/05/06 19:09:47;;;;;;;18.60;12.30;;;;;;;19.11;53.42;99629.86;230948;1231;139183;-58
2022/05/06 19:14:53;;;;;;;20.10;13.90;;;;;;;19.08;53.40;99625.85;231069;1233;139965;-61
2022/05/06 19:19:59;;;;;;;18.20;12.20;;;;;;;19.10;53.60;99626.54;230694;1233;139317;-56
2022/05/06 19:25:12;;;;;;;18.00;12.50;;;;;;;19.12;53.87;99626.56;230902;1232;139712;-57
2022/05/06 19:30:26;;;;;;;15.90;13.10;;;;;;;19.09;54.02;99626.80;230910;1233;139510;-57
2022/05/06 19:35:40;;;;;;;15.10;12.50;;;;;;;19.05;54.16;99632.91;230806;1233;139929;-59
2022/05/06 19:40:50;;;;;;;15.90;12.90;;;;;;;19.06;54.60;99632.66;230757;1232;139938;-59
2022/05/06 19:45:57;;;;;;;18.70;13.50;;;;;;;19.02;54.84;99632.33;230815;1232;139410;-56
2022/05/06 19:51:10;;;;;;;19.30;14.30;;;;;;;18.95;55.28;99638.11;231005;1232;139716;-59
2022/05/06 19:56:25;;;;;;;17.70;14.80;;;;;;;18.82;55.66;99636.73;230517;1232;138852;-58
2022/05/06 20:01:38;;;;;;;19.60;16.80;;;;;;;18.71;56.16;99637.52;230836;1232;138931;-58
2022/05/06 20:06:46;;;;;;;25.60;17.50;;;;;;;18.65;56.59;99636.20;230793;1233;140245;-59
2022/05/06 20:12:03;;;;;;;26.30;19.50;;;;;;;18.58;56.95;99634.50;230910;1232;140089;-58
2022/05/06 20:17:09;;;;;;;23.30;17.60;;;;;;;18.53;57.21;99629.91;230347;1232;139201;-58
2022/05/06 20:22:17;;;;;;;24.40;18.30;;;;;;;18.50;57.39;99627.92;230519;1232;140278;-59
2022/05/06 20:27:47;;;;;;;29.00;20.10;;;;;;;18.56;58.07;99634.41;230894;1232;140556;-59
2022/05/06 20:32:53;;;;;;;25.20;19.60;;;;;;;18.58;58.29;99630.33;230784;1232;139535;-62
2022/05/06 20:38:04;;;;;;;24.70;19.30;;;;;;;18.59;58.25;99634.90;230810;1232;141597;-59
2022/05/06 20:43:09;;;;;;;25.20;20.80;;;;;;;18.58;58.47;99632.29;230851;1232;139786;-59
2022/05/06 20:48:15;;;;;;;26.40;22.60;;;;;;;18.53;58.80;99629.52;230778;1233;138674;-57
2022/05/06 20:53:34;;;;;;;26.30;21.60;;;;;;;18.49;58.99;99627.73;230763;1233;139414;-57
2022/05/06 21:04:06;;;;;;;31.30;23.60;;;;;;;18.57;59.25;99628.02;231225;1232;139502;-56
2022/05/06 21:14:35;;;;;;;37.10;27.00;;;;;;;18.71;59.45;99633.98;231112;1232;138971;-58
2022/05/06 21:19:43;;;;;;;39.00;28.30;;;;;;;18.74;59.07;99639.83;230742;1232;139242;-58
2022/05/06 21:24:51;;;;;;;37.10;26.00;;;;;;;18.64;58.68;99636.27;230712;1233;140562;-58
2022/05/06 21:30:03;;;;;;;33.00;24.90;;;;;;;18.55;58.58;99635.82;230981;1232;139314;-58
2022/05/06 21:35:12;;;;;;;27.00;20.70;;;;;;;18.43;58.76;99629.33;230934;1233;139333;-55
2022/05/06 21:40:24;;;;;;;26.40;20.00;;;;;;;18.36;58.72;99624.32;230272;1233;139864;-59
2022/05/06 21:45:32;;;;;;;25.60;18.70;;;;;;;18.28;58.64;99614.38;230470;1233;139556;-58
2022/05/06 21:50:37;;;;;;;25.60;18.70;;;;;;;18.17;58.80;99617.80;230696;1233;138997;-58
2022/05/06 21:55:45;;;;;;;27.30;19.70;;;;;;;18.08;58.77;99609.10;230616;1231;140032;-58
2022/05/06 22:00:54;;;;;;;21.80;17.80;;;;;;;18.00;58.86;99611.36;230790;1232;139878;-59
2022/05/06 22:06:00;;;;;;;20.20;14.90;;;;;;;17.87;58.85;99606.14;230723;1232;139359;-58
2022/05/06 22:11:15;;;;;;;16.10;12.70;;;;;;;17.79;59.05;99610.44;230720;1231;139449;-57
2022/05/06 22:16:22;;;;;;;15.90;10.60;;;;;;;17.69;59.09;99603.30;230701;1232;139168;-58
2022/05/06 22:21:34;;;;;;;16.70;13.60;;;;;;;17.63;58.98;99604.52;230423;1232;139777;-58
2022/05/06 22:26:40;;;;;;;19.60;14.50;;;;;;;17.58;59.21;99597.58;230619;1232;139855;-57
2022/05/06 22:31:56;;;;;;;18.60;14.50;;;;;;;17.60;59.54;99603.17;230422;1233;139126;-59
2022/05/06 22:37:07;;;;;;;20.40;16.30;;;;;;;17.60;59.83;99594.56;230403;1232;139047;-59
2022/05/06 22:47:39;;;;;;;21.10;16.30;;;;;;;17.63;60.02;99596.77;230563;1232;139831;-58
2022/05/06 22:52:48;;;;;;;17.90;14.10;;;;;;;17.59;60.18;99597.15;230441;1232;139228;-59
2022/05/06 22:58:07;;;;;;;17.70;13.10;;;;;;;17.60;60.37;99597.93;230800;1232;142704;-58
2022/05/06 23:03:15;;;;;;;16.40;13.60;;;;;;;17.65;60.35;99595.94;230884;1232;140014;-57
2022/05/06 23:08:29;;;;;;;18.70;13.50;;;;;;;17.66;60.45;99592.23;230566;1232;139963;-58
2022/05/06 23:13:40;;;;;;;23.40;14.50;;;;;;;17.69;60.31;99596.46;230814;1232;139231;-57
2022/05/06 23:18:50;;;;;;;17.80;14.20;;;;;;;17.66;60.26;99598.73;230987;1232;140192;-58
2022/05/06 23:23:58;;;;;;;19.40;15.30;;;;;;;17.60;60.23;99590.62;230658;1232;139553;-54
2022/05/06 23:29:02;;;;;;;20.90;15.90;;;;;;;17.51;60.09;99586.68;230953;1233;139410;-59
2022/05/06 23:34:10;;;;;;;17.50;14.30;;;;;;;17.53;60.32;99586.88;230617;1232;139318;-59
2022/05/06 23:39:20;;;;;;;18.40;15.40;;;;;;;17.53;60.31;99573.39;231002;1232;140369;-58
2022/05/06 23:44:24;;;;;;;18.60;14.90;;;;;;;17.53;60.38;99571.81;231042;1232;141242;-59
2022/05/06 23:49:32;;;;;;;17.40;15.30;;;;;;;17.55;60.76;99572.23;230742;1232;138803;-60
2022/05/06 23:54:46;;;;;;;17.80;15.60;;;;;;;17.56;60.64;99565.52;230867;1232;139891;-59
2022/05/06 23:59:51;;;;;;;19.40;16.50;;;;;;;17.50;60.74;99560.02;230955;1232;140828;-56
